createdAt,value
2019-03-24T00:00:07.993Z,17.40
2019-03-24T00:02:36.741Z,17.10
2019-03-24T00:05:06.407Z,12.50
2019-03-24T00:07:35.019Z,6.97
2019-03-24T00:10:04.583Z,21.50
2019-03-24T00:12:33.213Z,20.53
2019-03-24T00:15:01.886Z,12.50
2019-03-24T00:17:30.603Z,26.83
2019-03-24T00:19:59.258Z,8.20
2019-03-24T00:22:28.004Z,21.13
2019-03-24T00:24:56.702Z,21.73
2019-03-24T00:27:25.492Z,17.33
2019-03-24T00:29:57.240Z,15.90
2019-03-24T00:32:25.934Z,12.23
2019-03-24T00:34:54.627Z,12.60
2019-03-24T00:37:23.276Z,18.40
2019-03-24T00:39:52.016Z,23.17
2019-03-24T00:42:20.827Z,30.70
2019-03-24T00:44:49.433Z,13.60
2019-03-24T00:47:18.075Z,18.43
2019-03-24T00:49:46.762Z,24.23
2019-03-24T00:52:15.508Z,34.70
2019-03-24T00:54:44.222Z,23.90
2019-03-24T00:57:12.969Z,11.83
2019-03-24T00:59:41.702Z,13.50
2019-03-24T01:02:10.527Z,19.60
2019-03-24T01:04:39.235Z,16.60
2019-03-24T01:07:08.016Z,27.13
2019-03-24T01:09:36.767Z,25.73
2019-03-24T01:12:06.736Z,37.80
2019-03-24T01:14:35.457Z,17.43
2019-03-24T01:17:04.947Z,24.47
2019-03-24T01:19:33.607Z,25.03
2019-03-24T01:22:02.369Z,31.87
2019-03-24T01:24:31.057Z,15.93
2019-03-24T01:26:59.832Z,11.27
2019-03-24T01:29:28.528Z,23.63
2019-03-24T01:31:57.150Z,25.17
2019-03-24T01:34:25.939Z,19.57
2019-03-24T01:36:54.559Z,22.20
2019-03-24T01:39:23.306Z,30.50
2019-03-24T01:41:51.983Z,18.07
2019-03-24T01:44:20.744Z,12.57
2019-03-24T01:46:49.634Z,22.03
2019-03-24T01:49:18.310Z,16.47
2019-03-24T01:51:46.929Z,23.07
2019-03-24T01:54:15.605Z,23.27
2019-03-24T01:56:44.291Z,44.63
2019-03-24T01:59:13.076Z,18.67
2019-03-24T02:01:41.700Z,22.62
2019-03-24T02:04:10.455Z,21.23
2019-03-24T02:06:39.145Z,17.30
2019-03-24T02:09:08.736Z,13.83
2019-03-24T02:11:37.400Z,25.17
2019-03-24T02:14:06.271Z,18.40
2019-03-24T02:16:34.966Z,22.67
2019-03-24T02:19:03.698Z,26.83
2019-03-24T02:21:38.911Z,21.07
2019-03-24T02:24:10.207Z,25.70
2019-03-24T02:26:38.974Z,16.40
2019-03-24T02:29:07.711Z,27.80
2019-03-24T02:31:36.400Z,24.67
2019-03-24T02:34:05.260Z,41.07
2019-03-24T02:36:33.949Z,37.90
2019-03-24T02:39:02.711Z,17.60
2019-03-24T02:41:31.649Z,18.07
2019-03-24T02:44:00.404Z,19.40
2019-03-24T02:46:29.063Z,38.27
2019-03-24T02:48:57.879Z,14.30
2019-03-24T02:51:26.647Z,21.50
2019-03-24T02:53:55.509Z,17.53
2019-03-24T02:56:24.188Z,45.37
2019-03-24T02:58:52.918Z,44.70
2019-03-24T03:01:21.674Z,89.70
2019-03-24T03:03:50.394Z,53.87
2019-03-24T03:06:19.143Z,39.35
2019-03-24T03:08:47.751Z,37.03
2019-03-24T03:11:17.011Z,86.53
2019-03-24T03:13:45.834Z,18.93
2019-03-24T03:16:14.569Z,65.37
2019-03-24T03:18:43.285Z,63.47
2019-03-24T03:21:12.191Z,21.80
2019-03-24T03:23:41.059Z,100.17
2019-03-24T03:26:09.727Z,52.80
2019-03-24T03:28:38.456Z,74.37
2019-03-24T03:31:07.236Z,80.20
2019-03-24T03:33:35.891Z,9.57
2019-03-24T03:36:05.170Z,30.43
2019-03-24T03:38:33.877Z,78.37
2019-03-24T03:41:02.577Z,24.80
2019-03-24T03:43:31.548Z,42.33
2019-03-24T03:46:00.162Z,22.10
2019-03-24T03:48:28.877Z,23.37
2019-03-24T03:50:57.713Z,34.37
2019-03-24T03:53:26.450Z,28.20
2019-03-24T03:55:55.168Z,26.73
2019-03-24T03:58:23.871Z,15.93
2019-03-24T04:00:52.688Z,17.00
2019-03-24T04:03:21.351Z,11.38
2019-03-24T04:05:50.015Z,17.57
2019-03-24T04:08:18.700Z,23.07
2019-03-24T04:10:47.410Z,21.17
2019-03-24T04:13:16.176Z,33.67
2019-03-24T04:15:45.026Z,27.83
2019-03-24T04:18:13.727Z,21.10
2019-03-24T04:20:42.543Z,29.63
2019-03-24T04:23:11.331Z,36.67
2019-03-24T04:25:40.065Z,27.20
2019-03-24T04:28:09.469Z,29.90
2019-03-24T04:30:38.261Z,17.30
2019-03-24T04:33:07.026Z,23.87
2019-03-24T04:35:35.724Z,20.27
2019-03-24T04:38:05.461Z,27.93
2019-03-24T04:40:35.068Z,14.60
2019-03-24T04:43:03.834Z,17.30
2019-03-24T04:45:32.521Z,23.40
2019-03-24T04:48:01.185Z,22.67
2019-03-24T04:50:29.865Z,13.70
2019-03-24T04:52:58.511Z,20.10
2019-03-24T04:55:27.273Z,28.67
2019-03-24T04:57:55.896Z,27.50
2019-03-24T05:00:40.959Z,37.43
2019-03-24T05:03:09.677Z,36.27
2019-03-24T05:05:40.065Z,35.70
2019-03-24T05:08:10.839Z,31.90
2019-03-24T05:10:39.554Z,55.33
2019-03-24T05:13:08.288Z,26.33
2019-03-24T05:15:37.021Z,30.67
2019-03-24T05:18:05.714Z,39.03
2019-03-24T05:20:34.478Z,24.50
2019-03-24T05:23:03.119Z,27.83
2019-03-24T05:25:31.898Z,11.40
2019-03-24T05:28:00.650Z,18.53
2019-03-24T05:30:29.407Z,44.27
2019-03-24T05:32:58.084Z,19.50
2019-03-24T05:35:26.811Z,21.77
2019-03-24T05:37:55.421Z,24.27
2019-03-24T05:40:24.004Z,28.63
2019-03-24T05:42:52.592Z,21.43
2019-03-24T05:45:21.379Z,31.70
2019-03-24T05:47:50.058Z,49.70
2019-03-24T05:50:18.767Z,34.60
2019-03-24T05:52:47.495Z,44.93
2019-03-24T05:55:16.203Z,50.48
2019-03-24T05:57:45.005Z,25.90
2019-03-24T06:00:14.624Z,27.77
2019-03-24T06:02:43.399Z,30.57
2019-03-24T06:05:12.333Z,28.57
2019-03-24T06:07:40.998Z,29.13
2019-03-24T06:10:10.033Z,22.90
2019-03-24T06:12:38.756Z,18.90
2019-03-24T06:15:10.468Z,23.60
2019-03-24T06:17:47.400Z,20.53
2019-03-24T06:20:10.930Z,13.27
2019-03-24T06:22:39.655Z,19.37
2019-03-24T06:25:08.517Z,15.63
2019-03-24T06:27:37.246Z,18.37
2019-03-24T06:30:08.447Z,37.63
2019-03-24T06:32:37.157Z,20.97
2019-03-24T06:35:09.661Z,17.17
2019-03-24T06:37:38.589Z,16.50
2019-03-24T06:40:07.418Z,27.70
2019-03-24T06:42:36.091Z,21.67
2019-03-24T06:45:07.089Z,22.73
2019-03-24T06:47:35.926Z,24.83
2019-03-24T06:50:08.010Z,23.75
2019-03-24T06:52:36.726Z,26.60
2019-03-24T06:55:16.274Z,23.77
2019-03-24T06:57:45.099Z,52.62
2019-03-24T07:00:15.296Z,32.93
2019-03-24T07:02:44.233Z,47.10
2019-03-24T07:05:13.067Z,67.00
2019-03-24T07:07:41.721Z,25.30
2019-03-24T07:10:11.307Z,28.20
2019-03-24T07:12:40.096Z,27.90
2019-03-24T07:15:10.402Z,19.07
2019-03-24T07:17:39.134Z,9.77
2019-03-24T07:20:09.294Z,15.10
2019-03-24T07:22:38.056Z,17.57
2019-03-24T07:25:24.951Z,7.87
2019-03-24T07:27:55.320Z,13.67
2019-03-24T07:30:24.092Z,13.10
2019-03-24T07:32:52.904Z,13.30
2019-03-24T07:35:21.737Z,10.95
2019-03-24T07:37:50.542Z,10.67
2019-03-24T07:40:19.415Z,9.87
2019-03-24T07:42:48.331Z,14.43
2019-03-24T07:45:17.181Z,8.93
2019-03-24T07:47:48.984Z,11.97
2019-03-24T07:50:18.978Z,13.45
2019-03-24T07:52:47.752Z,16.95
2019-03-24T07:55:16.450Z,20.30
2019-03-24T07:57:45.183Z,17.77
2019-03-24T08:00:15.952Z,24.95
2019-03-24T08:02:53.196Z,19.87
2019-03-24T08:05:21.963Z,19.95
2019-03-24T08:07:54.587Z,16.10
2019-03-24T08:10:23.945Z,19.20
2019-03-24T08:12:52.940Z,19.63
2019-03-24T08:15:38.887Z,16.23
2019-03-24T08:18:07.803Z,15.37
2019-03-24T08:20:37.106Z,19.10
2019-03-24T08:23:11.544Z,14.87
2019-03-24T08:25:40.750Z,20.20
2019-03-24T08:28:09.922Z,19.83
2019-03-24T08:30:39.401Z,25.33
2019-03-24T08:33:08.136Z,19.80
2019-03-24T08:35:37.063Z,16.93
2019-03-24T08:38:18.464Z,17.03
2019-03-24T08:40:48.065Z,14.83
2019-03-24T08:43:16.935Z,20.90
2019-03-24T08:45:45.663Z,26.03
2019-03-24T08:48:27.592Z,21.60
2019-03-24T08:50:56.351Z,15.43
2019-03-24T08:53:25.726Z,26.37
2019-03-24T08:55:54.577Z,24.73
2019-03-24T08:58:23.211Z,24.90
2019-03-24T09:00:51.965Z,18.33
2019-03-24T09:03:20.963Z,35.63
2019-03-24T09:05:49.948Z,16.83
2019-03-24T09:08:18.611Z,29.30
2019-03-24T09:10:47.262Z,22.07
2019-03-24T09:13:16.110Z,21.80
2019-03-24T09:15:44.912Z,25.40
2019-03-24T09:18:13.675Z,22.07
2019-03-24T09:20:43.510Z,15.57
2019-03-24T09:23:12.171Z,26.53
2019-03-24T09:25:40.921Z,22.60
2019-03-24T09:28:12.970Z,24.10
2019-03-24T09:30:41.727Z,21.70
2019-03-24T09:33:10.458Z,32.25
2019-03-24T09:35:39.404Z,19.33
2019-03-24T09:38:08.761Z,20.13
2019-03-24T09:40:37.665Z,23.87
2019-03-24T09:43:07.341Z,21.23
2019-03-24T09:45:36.172Z,24.03
2019-03-24T09:48:07.539Z,19.90
2019-03-24T09:50:36.360Z,16.00
2019-03-24T09:53:05.281Z,27.33
2019-03-24T09:55:37.266Z,15.63
2019-03-24T09:58:06.043Z,25.93
2019-03-24T10:00:35.489Z,24.83
2019-03-24T10:03:04.360Z,18.00
2019-03-24T10:05:33.008Z,16.80
2019-03-24T10:08:04.913Z,19.87
2019-03-24T10:10:33.620Z,16.00
2019-03-24T10:13:02.601Z,19.53
2019-03-24T10:15:31.295Z,18.83
2019-03-24T10:18:00.344Z,13.53
2019-03-24T10:20:29.154Z,14.93
2019-03-24T10:22:57.985Z,21.60
2019-03-24T10:25:26.746Z,22.20
2019-03-24T10:27:55.565Z,17.90
2019-03-24T10:30:24.289Z,14.65
2019-03-24T10:32:52.986Z,25.60
2019-03-24T10:35:21.648Z,18.30
2019-03-24T10:37:50.542Z,18.40
2019-03-24T10:40:28.091Z,17.17
2019-03-24T10:42:50.764Z,11.57
2019-03-24T10:45:23.232Z,25.10
2019-03-24T10:47:55.724Z,14.27
2019-03-24T10:50:25.655Z,22.17
2019-03-24T10:52:56.444Z,29.40
2019-03-24T10:55:25.209Z,22.23
2019-03-24T10:57:53.982Z,22.50
2019-03-24T11:00:29.113Z,13.00
2019-03-24T11:02:58.810Z,28.10
2019-03-24T11:05:28.723Z,10.37
2019-03-24T11:07:58.205Z,19.50
2019-03-24T11:10:27.778Z,13.53
2019-03-24T11:12:57.598Z,26.70
2019-03-24T11:15:27.339Z,15.60
2019-03-24T11:17:57.067Z,15.95
2019-03-24T11:20:26.763Z,17.97
2019-03-24T11:23:01.100Z,13.73
2019-03-24T11:25:43.027Z,12.97
2019-03-24T11:28:13.842Z,14.87
2019-03-24T11:30:43.509Z,14.00
2019-03-24T11:33:13.132Z,18.80
2019-03-24T11:35:42.338Z,15.73
2019-03-24T11:38:11.682Z,14.87
2019-03-24T11:40:40.692Z,11.53
2019-03-24T11:43:09.517Z,13.97
2019-03-24T11:45:38.908Z,15.43
2019-03-24T11:48:07.825Z,8.00
2019-03-24T11:50:36.945Z,11.33
2019-03-24T11:53:05.825Z,12.47
2019-03-24T11:55:36.880Z,8.77
2019-03-24T11:58:06.416Z,17.20
2019-03-24T12:00:43.532Z,7.90
2019-03-24T12:03:12.519Z,15.80
2019-03-24T12:05:41.162Z,16.27
2019-03-24T12:08:10.223Z,20.60
2019-03-24T12:10:38.933Z,14.90
2019-03-24T12:13:14.156Z,10.40
2019-03-24T12:15:43.531Z,13.13
2019-03-24T12:18:12.855Z,15.23
2019-03-24T12:20:41.812Z,11.83
2019-03-24T12:23:10.525Z,14.27
2019-03-24T12:25:39.262Z,15.17
2019-03-24T12:28:09.206Z,16.80
2019-03-24T12:30:40.256Z,11.23
2019-03-24T12:33:11.136Z,14.23
2019-03-24T12:35:39.837Z,19.10
2019-03-24T12:38:09.411Z,13.47
2019-03-24T12:40:38.167Z,12.70
2019-03-24T12:43:06.967Z,10.83
2019-03-24T12:45:36.378Z,16.33
2019-03-24T12:48:05.599Z,15.30
2019-03-24T12:50:35.182Z,13.37
2019-03-24T12:53:04.110Z,16.10
2019-03-24T12:55:32.815Z,12.23
2019-03-24T12:58:01.594Z,21.77
2019-03-24T13:00:34.766Z,16.73
2019-03-24T13:03:03.639Z,26.80
2019-03-24T13:05:32.419Z,10.95
2019-03-24T13:08:12.566Z,9.23
2019-03-24T13:10:48.242Z,15.30
2019-03-24T13:13:17.046Z,10.73
2019-03-24T13:15:54.258Z,9.10
2019-03-24T13:18:23.467Z,16.40
2019-03-24T13:20:52.150Z,7.83
2019-03-24T13:23:20.867Z,11.20
2019-03-24T13:25:50.638Z,17.40
2019-03-24T13:28:19.655Z,16.12
2019-03-24T13:30:48.388Z,14.07
2019-03-24T13:33:17.226Z,9.20
2019-03-24T13:35:46.153Z,9.37
2019-03-24T13:38:15.539Z,9.93
2019-03-24T13:40:44.153Z,9.53
2019-03-24T13:43:12.920Z,14.87
2019-03-24T13:45:41.674Z,12.93
2019-03-24T13:48:10.301Z,9.17
2019-03-24T13:50:39.010Z,11.57
2019-03-24T13:53:07.667Z,9.90
2019-03-24T13:55:36.373Z,11.70
2019-03-24T13:58:05.792Z,6.30
2019-03-24T14:00:34.542Z,8.03
2019-03-24T14:03:03.336Z,11.53
2019-03-24T14:05:32.150Z,9.60
2019-03-24T14:08:00.795Z,7.90
2019-03-24T14:10:29.555Z,14.53
2019-03-24T14:12:58.207Z,6.60
2019-03-24T14:15:26.887Z,9.37
2019-03-24T14:17:55.787Z,5.03
2019-03-24T14:20:24.660Z,6.90
2019-03-24T14:22:55.307Z,8.13
2019-03-24T14:25:23.835Z,11.20
2019-03-24T14:27:52.562Z,13.50
2019-03-24T14:30:24.245Z,14.25
2019-03-24T14:32:53.069Z,7.13
2019-03-24T14:35:21.841Z,11.18
2019-03-24T14:37:50.677Z,15.30
2019-03-24T14:40:19.435Z,13.40
2019-03-24T14:42:48.236Z,10.50
2019-03-24T14:45:16.988Z,11.10
2019-03-24T14:47:45.714Z,11.87
2019-03-24T14:50:14.578Z,9.88
2019-03-24T14:52:43.302Z,14.03
2019-03-24T14:55:12.022Z,15.75
2019-03-24T14:57:40.894Z,10.85
2019-03-24T15:00:10.886Z,14.20
2019-03-24T15:02:40.857Z,5.10
2019-03-24T15:05:10.077Z,6.67
2019-03-24T15:07:38.848Z,10.97
2019-03-24T15:10:08.162Z,7.57
2019-03-24T15:12:36.927Z,11.40
2019-03-24T15:15:07.424Z,8.47
2019-03-24T15:17:36.245Z,12.07
2019-03-24T15:20:07.328Z,10.43
2019-03-24T15:22:36.161Z,8.08
2019-03-24T15:25:08.347Z,9.33
2019-03-24T15:27:37.112Z,3.40
2019-03-24T15:30:08.544Z,12.47
2019-03-24T15:32:37.296Z,8.23
2019-03-24T15:35:07.435Z,8.95
2019-03-24T15:37:36.292Z,5.70
2019-03-24T15:40:07.762Z,8.55
2019-03-24T15:42:36.524Z,8.97
2019-03-24T15:45:07.850Z,8.70
2019-03-24T15:47:36.556Z,5.77
2019-03-24T15:50:09.066Z,6.70
2019-03-24T15:52:37.874Z,12.27
2019-03-24T15:55:07.717Z,6.03
2019-03-24T15:57:36.410Z,7.80
2019-03-24T16:00:07.814Z,5.07
2019-03-24T16:02:36.589Z,13.43
2019-03-24T16:05:06.815Z,8.90
2019-03-24T16:07:35.506Z,5.23
2019-03-24T16:10:08.152Z,6.10
2019-03-24T16:12:37.186Z,14.27
2019-03-24T16:15:08.213Z,6.00
2019-03-24T16:17:36.956Z,2.97
2019-03-24T16:20:07.279Z,6.20
2019-03-24T16:22:35.971Z,3.57
2019-03-24T16:25:07.287Z,5.40
2019-03-24T16:27:36.099Z,13.67
2019-03-24T16:30:08.425Z,5.90
2019-03-24T16:32:37.247Z,4.93
2019-03-24T16:35:07.768Z,9.97
2019-03-24T16:37:36.404Z,9.37
2019-03-24T16:40:08.306Z,3.50
2019-03-24T16:42:37.597Z,5.70
2019-03-24T16:45:06.587Z,9.45
2019-03-24T16:47:35.472Z,9.23
2019-03-24T16:50:09.450Z,8.25
2019-03-24T16:52:38.140Z,9.80
2019-03-24T16:55:07.668Z,8.83
2019-03-24T16:57:36.400Z,4.10
2019-03-24T17:00:08.400Z,7.95
2019-03-24T17:02:37.161Z,7.30
2019-03-24T17:05:07.356Z,6.58
2019-03-24T17:07:36.327Z,5.93
2019-03-24T17:10:08.052Z,8.73
2019-03-24T17:12:36.879Z,8.50
2019-03-24T17:15:08.416Z,8.20
2019-03-24T17:17:37.649Z,8.90
2019-03-24T17:20:08.417Z,8.80
2019-03-24T17:22:41.426Z,10.73
2019-03-24T17:25:11.355Z,6.70
2019-03-24T17:27:41.056Z,5.60
2019-03-24T17:30:13.310Z,10.10
2019-03-24T17:32:42.119Z,12.40
2019-03-24T17:35:11.908Z,5.62
2019-03-24T17:37:41.454Z,9.77
2019-03-24T17:40:14.832Z,3.77
2019-03-24T17:42:43.533Z,4.57
2019-03-24T17:45:14.147Z,6.60
2019-03-24T17:47:42.774Z,11.80
2019-03-24T17:50:13.895Z,5.25
2019-03-24T17:52:43.614Z,7.43
2019-03-24T17:55:12.620Z,9.90
2019-03-24T17:57:41.992Z,7.00
2019-03-24T18:00:15.057Z,8.00
2019-03-24T18:02:44.151Z,5.40
2019-03-24T18:05:16.395Z,8.10
2019-03-24T18:07:45.101Z,8.30
2019-03-24T18:10:15.358Z,6.53
2019-03-24T18:12:44.669Z,5.57
2019-03-24T18:15:13.402Z,8.08
2019-03-24T18:17:42.180Z,3.23
2019-03-24T18:20:13.894Z,4.70
2019-03-24T18:22:42.640Z,12.30
2019-03-24T18:25:11.493Z,7.07
2019-03-24T18:27:40.100Z,8.23
2019-03-24T18:30:11.332Z,7.75
2019-03-24T18:32:40.042Z,8.03
2019-03-24T18:35:11.266Z,7.10
2019-03-24T18:37:41.399Z,8.60
2019-03-24T18:40:12.581Z,10.13
2019-03-24T18:42:41.388Z,5.90
2019-03-24T18:45:12.310Z,9.30
2019-03-24T18:47:45.512Z,5.00
2019-03-24T18:50:15.235Z,9.05
2019-03-24T18:52:43.773Z,10.10
2019-03-24T18:55:12.705Z,11.10
2019-03-24T18:57:42.103Z,12.13
2019-03-24T19:00:13.729Z,9.03
2019-03-24T19:02:42.385Z,9.10
2019-03-24T19:05:12.166Z,5.33
2019-03-24T19:07:40.807Z,8.77
2019-03-24T19:10:11.625Z,11.60
2019-03-24T19:12:40.431Z,9.70
2019-03-24T19:15:13.372Z,11.13
2019-03-24T19:17:42.334Z,6.70
2019-03-24T19:20:19.558Z,9.13
2019-03-24T19:22:49.863Z,6.13
2019-03-24T19:25:18.700Z,6.67
2019-03-24T19:27:48.229Z,16.43
2019-03-24T19:30:19.702Z,14.17
2019-03-24T19:32:48.347Z,9.83
2019-03-24T19:35:17.781Z,11.57
2019-03-24T19:37:47.649Z,14.73
2019-03-24T19:40:27.605Z,12.00
2019-03-24T19:42:56.503Z,10.40
2019-03-24T19:45:25.817Z,14.20
2019-03-24T19:48:04.259Z,8.37
2019-03-24T19:50:34.694Z,8.70
2019-03-24T19:53:03.590Z,13.83
2019-03-24T19:55:41.080Z,10.53
2019-03-24T19:58:10.007Z,7.53
2019-03-24T20:00:38.890Z,5.25
2019-03-24T20:03:07.683Z,11.53
2019-03-24T20:05:36.364Z,11.03
2019-03-24T20:08:05.184Z,11.12
2019-03-24T20:10:50.628Z,12.10
2019-03-24T20:13:21.700Z,8.13
2019-03-24T20:15:50.564Z,7.40
2019-03-24T20:18:19.199Z,11.97
2019-03-24T20:20:47.952Z,9.70
2019-03-24T20:23:16.819Z,10.98
2019-03-24T20:25:45.599Z,10.27
2019-03-24T20:28:14.218Z,15.30
2019-03-24T20:30:42.908Z,12.83
2019-03-24T20:33:11.607Z,6.83
2019-03-24T20:35:40.280Z,13.03
2019-03-24T20:38:09.091Z,10.43
2019-03-24T20:40:37.689Z,9.23
2019-03-24T20:43:06.356Z,5.20
2019-03-24T20:45:35.091Z,7.15
2019-03-24T20:48:03.903Z,14.53
2019-03-24T20:50:32.670Z,11.43
2019-03-24T20:53:05.573Z,19.37
2019-03-24T20:55:34.338Z,11.12
2019-03-24T20:58:02.273Z,7.00
2019-03-24T21:00:36.377Z,12.75
2019-03-24T21:03:07.170Z,18.62
2019-03-24T21:05:36.011Z,8.33
2019-03-24T21:08:05.110Z,12.88
2019-03-24T21:10:34.102Z,13.47
2019-03-24T21:13:03.163Z,8.93
2019-03-24T21:15:32.673Z,13.53
2019-03-24T21:18:02.839Z,12.57
2019-03-24T21:20:32.438Z,10.10
2019-03-24T21:23:01.159Z,9.10
2019-03-24T21:25:32.336Z,12.70
2019-03-24T21:28:00.968Z,10.43
2019-03-24T21:30:37.857Z,20.20
2019-03-24T21:33:07.378Z,17.00
2019-03-24T21:35:48.294Z,6.80
2019-03-24T21:38:18.608Z,12.63
2019-03-24T21:40:48.199Z,6.40
2019-03-24T21:43:19.946Z,14.20
2019-03-24T21:45:48.687Z,13.73
2019-03-24T21:48:17.487Z,4.73
2019-03-24T21:50:46.227Z,5.90
2019-03-24T21:53:15.444Z,7.33
2019-03-24T21:55:45.576Z,5.23
2019-03-24T21:58:17.983Z,7.85
2019-03-24T22:00:46.683Z,11.97
2019-03-24T22:03:15.344Z,13.07
2019-03-24T22:05:44.404Z,1.33
2019-03-24T22:08:13.130Z,8.35
2019-03-24T22:10:41.771Z,3.53
2019-03-24T22:13:10.520Z,4.87
2019-03-24T22:15:39.155Z,6.07
2019-03-24T22:18:09.334Z,6.17
2019-03-24T22:20:48.455Z,10.93
2019-03-24T22:23:08.440Z,6.97
2019-03-24T22:25:37.192Z,8.67
2019-03-24T22:28:05.914Z,13.40
2019-03-24T22:30:34.766Z,15.60
2019-03-24T22:33:03.469Z,5.30
2019-03-24T22:35:32.177Z,4.83
2019-03-24T22:38:00.960Z,14.20
2019-03-24T22:40:29.667Z,7.43
2019-03-24T22:42:58.322Z,4.40
2019-03-24T22:45:26.963Z,25.47
2019-03-24T22:47:55.666Z,12.87
2019-03-24T22:50:24.426Z,11.83
2019-03-24T22:52:53.040Z,23.50
2019-03-24T22:55:21.683Z,9.87
2019-03-24T22:57:50.411Z,11.07
2019-03-24T23:00:20.960Z,4.50
2019-03-24T23:02:49.670Z,8.30
2019-03-24T23:05:18.398Z,10.33
2019-03-24T23:07:47.210Z,17.25
2019-03-24T23:10:15.926Z,7.90
2019-03-24T23:12:44.617Z,12.80
2019-03-24T23:15:13.471Z,9.58
2019-03-24T23:17:42.260Z,6.80
2019-03-24T23:20:10.901Z,6.75
2019-03-24T23:22:39.543Z,15.73
2019-03-24T23:25:08.322Z,3.70
2019-03-24T23:27:37.054Z,5.93
2019-03-24T23:30:07.841Z,6.27
2019-03-24T23:32:36.580Z,7.40
2019-03-24T23:35:06.895Z,3.97
2019-03-24T23:37:35.712Z,4.23
2019-03-24T23:40:08.704Z,11.03
2019-03-24T23:42:37.444Z,5.23
2019-03-24T23:45:07.941Z,1.40
2019-03-24T23:47:36.607Z,1.57
2019-03-24T23:50:06.709Z,4.25
2019-03-24T23:52:35.389Z,6.73
2019-03-24T23:55:04.753Z,7.47
2019-03-24T23:57:33.497Z,5.13
